createdAt,value
2024-04-03T00:00:05.252Z,9.89
2024-04-03T00:00:56.094Z,9.88
2024-04-03T00:01:46.840Z,9.86
2024-04-03T00:02:37.654Z,9.85
2024-04-03T00:03:28.448Z,9.83
2024-04-03T00:04:19.237Z,9.81
2024-04-03T00:05:10.041Z,9.79
2024-04-03T00:06:00.827Z,9.78
2024-04-03T00:06:51.641Z,9.75
2024-04-03T00:07:42.435Z,9.76
2024-04-03T00:08:33.206Z,9.73
2024-04-03T00:09:23.999Z,9.73
2024-04-03T00:10:14.798Z,9.75
2024-04-03T00:11:05.605Z,9.73
2024-04-03T00:11:56.395Z,9.73
2024-04-03T00:12:47.208Z,9.75
2024-04-03T00:13:38.027Z,9.73
2024-04-03T00:14:28.820Z,9.71
2024-04-03T00:15:19.614Z,9.68
2024-04-03T00:16:10.412Z,9.68
2024-04-03T00:17:01.196Z,9.68
2024-04-03T00:17:51.986Z,9.64
2024-04-03T00:18:42.925Z,9.66
2024-04-03T00:19:33.722Z,9.63
2024-04-03T00:20:24.507Z,9.63
2024-04-03T00:21:15.300Z,9.63
2024-04-03T00:22:06.088Z,9.61
2024-04-03T00:22:56.900Z,9.60
2024-04-03T00:23:47.663Z,9.61
2024-04-03T00:24:38.459Z,9.61
2024-04-03T00:25:29.242Z,9.60
2024-04-03T00:26:20.053Z,9.60
2024-04-03T00:27:10.854Z,9.58
2024-04-03T00:28:01.643Z,9.58
2024-04-03T00:28:52.429Z,9.56
2024-04-03T00:29:43.236Z,9.57
2024-04-03T00:30:34.034Z,9.58
2024-04-03T00:31:24.864Z,9.58
2024-04-03T00:32:15.664Z,9.58
2024-04-03T00:33:06.453Z,9.58
2024-04-03T00:33:57.261Z,9.60
2024-04-03T00:34:48.059Z,9.57
2024-04-03T00:35:38.845Z,9.57
2024-04-03T00:36:29.640Z,9.57
2024-04-03T00:37:20.421Z,9.56
2024-04-03T00:38:11.260Z,9.56
2024-04-03T00:39:02.007Z,9.53
2024-04-03T00:39:52.822Z,9.50
2024-04-03T00:40:43.614Z,9.50
2024-04-03T00:41:34.402Z,9.48
2024-04-03T00:42:25.266Z,9.48
2024-04-03T00:43:16.073Z,9.46
2024-04-03T00:44:06.855Z,9.45
2024-04-03T00:44:57.668Z,9.42
2024-04-03T00:45:48.438Z,9.40
2024-04-03T00:46:39.254Z,9.38
2024-04-03T00:47:30.443Z,9.35
2024-04-03T00:48:21.297Z,9.34
2024-04-03T00:49:12.068Z,9.32
2024-04-03T00:50:02.871Z,9.31
2024-04-03T00:50:53.649Z,9.30
2024-04-03T00:51:44.457Z,9.27
2024-04-03T00:52:35.258Z,9.30
2024-04-03T00:53:26.075Z,9.27
2024-04-03T00:54:16.830Z,9.27
2024-04-03T00:55:07.626Z,9.25
2024-04-03T00:55:58.414Z,9.24
2024-04-03T00:56:49.210Z,9.24
2024-04-03T00:57:39.987Z,9.23
2024-04-03T00:58:30.789Z,9.23
2024-04-03T00:59:21.578Z,9.21
2024-04-03T01:00:12.384Z,9.20
2024-04-03T01:01:03.174Z,9.23
2024-04-03T01:01:54.874Z,9.21
2024-04-03T01:02:45.020Z,9.20
2024-04-03T01:03:35.812Z,9.18
2024-04-03T01:04:26.600Z,9.16
2024-04-03T01:05:17.411Z,9.16
2024-04-03T01:06:08.196Z,9.15
2024-04-03T01:06:58.982Z,9.15
2024-04-03T01:07:49.801Z,9.15
2024-04-03T01:08:40.692Z,9.15
2024-04-03T01:09:31.423Z,9.13
2024-04-03T01:10:22.224Z,9.13
2024-04-03T01:11:13.014Z,9.12
2024-04-03T01:12:03.861Z,9.09
2024-04-03T01:12:54.638Z,9.09
2024-04-03T01:13:45.426Z,9.05
2024-04-03T01:14:36.258Z,9.04
2024-04-03T01:15:27.056Z,9.02
2024-04-03T01:16:17.847Z,9.01
2024-04-03T01:17:08.646Z,8.99
2024-04-03T01:17:59.447Z,9.01
2024-04-03T01:18:50.225Z,9.02
2024-04-03T01:19:41.024Z,9.01
2024-04-03T01:20:32.885Z,8.97
2024-04-03T01:21:23.010Z,8.99
2024-04-03T01:22:13.802Z,8.96
2024-04-03T01:23:04.585Z,8.96
2024-04-03T01:23:55.404Z,8.94
2024-04-03T01:24:46.166Z,8.94
2024-04-03T01:25:47.384Z,8.91
2024-04-03T01:26:28.986Z,8.88
2024-04-03T01:27:19.134Z,8.87
2024-04-03T01:28:09.900Z,8.87
2024-04-03T01:29:00.701Z,8.83
2024-04-03T01:29:51.484Z,8.81
2024-04-03T01:30:42.275Z,8.76
2024-04-03T01:31:33.065Z,8.75
2024-04-03T01:32:23.850Z,8.75
2024-04-03T01:33:14.653Z,8.75
2024-04-03T01:34:05.461Z,8.75
2024-04-03T01:34:56.249Z,8.72
2024-04-03T01:35:47.050Z,8.72
2024-04-03T01:36:37.849Z,8.72
2024-04-03T01:37:28.638Z,8.71
2024-04-03T01:38:19.448Z,8.71
2024-04-03T01:39:10.250Z,8.72
2024-04-03T01:40:01.023Z,8.72
2024-04-03T01:40:51.812Z,8.73
2024-04-03T01:41:42.606Z,8.72
2024-04-03T01:42:33.408Z,8.71
2024-04-03T01:43:24.211Z,8.68
2024-04-03T01:44:15.018Z,8.69
2024-04-03T01:45:05.834Z,8.71
2024-04-03T01:45:56.616Z,8.69
2024-04-03T01:46:47.409Z,8.69
2024-04-03T01:47:38.205Z,8.69
2024-04-03T01:48:28.982Z,8.69
2024-04-03T01:49:19.781Z,8.71
2024-04-03T01:50:10.587Z,8.69
2024-04-03T01:51:01.388Z,8.66
2024-04-03T01:51:52.159Z,8.65
2024-04-03T01:52:42.950Z,8.63
2024-04-03T01:53:33.743Z,8.66
2024-04-03T01:54:24.560Z,8.65
2024-04-03T01:55:15.354Z,8.65
2024-04-03T01:56:06.133Z,8.63
2024-04-03T01:56:56.920Z,8.65
2024-04-03T01:57:47.714Z,8.65
2024-04-03T01:58:38.517Z,8.65
2024-04-03T01:59:29.312Z,8.65
2024-04-03T02:00:20.112Z,8.65
2024-04-03T02:01:10.900Z,8.65
2024-04-03T02:02:01.690Z,8.63
2024-04-03T02:02:52.488Z,8.63
2024-04-03T02:03:43.261Z,8.62
2024-04-03T02:04:34.047Z,8.63
2024-04-03T02:05:24.853Z,8.62
2024-04-03T02:06:15.657Z,8.60
2024-04-03T02:07:06.444Z,8.57
2024-04-03T02:07:57.257Z,8.57
2024-04-03T02:08:48.053Z,8.57
2024-04-03T02:09:38.857Z,8.55
2024-04-03T02:10:29.642Z,8.55
2024-04-03T02:11:20.438Z,8.55
2024-04-03T02:12:11.219Z,8.55
2024-04-03T02:13:02.030Z,8.54
2024-04-03T02:13:52.825Z,8.58
2024-04-03T02:14:43.618Z,8.57
2024-04-03T02:15:34.404Z,8.57
2024-04-03T02:16:25.215Z,8.58
2024-04-03T02:17:16.002Z,8.57
2024-04-03T02:18:06.786Z,8.57
2024-04-03T02:18:57.573Z,8.58
2024-04-03T02:19:48.363Z,8.55
2024-04-03T02:20:39.161Z,8.54
2024-04-03T02:21:29.960Z,8.54
2024-04-03T02:22:20.775Z,8.53
2024-04-03T02:23:11.610Z,8.51
2024-04-03T02:24:12.817Z,8.50
2024-04-03T02:24:54.373Z,8.45
2024-04-03T02:25:44.484Z,8.42
2024-04-03T02:26:35.284Z,8.42
2024-04-03T02:27:26.106Z,8.39
2024-04-03T02:28:16.872Z,8.39
2024-04-03T02:29:07.713Z,8.37
2024-04-03T02:29:58.549Z,8.36
2024-04-03T02:30:49.315Z,8.36
2024-04-03T02:31:40.099Z,8.36
2024-04-03T02:32:30.917Z,8.35
2024-04-03T02:33:21.675Z,8.35
2024-04-03T02:34:12.491Z,8.32
2024-04-03T02:35:03.292Z,8.33
2024-04-03T02:35:54.090Z,8.32
2024-04-03T02:36:44.876Z,8.32
2024-04-03T02:37:35.684Z,8.32
2024-04-03T02:38:26.474Z,8.32
2024-04-03T02:39:17.255Z,8.29
2024-04-03T02:40:08.077Z,8.26
2024-04-03T02:40:58.859Z,8.22
2024-04-03T02:41:49.646Z,8.21
2024-04-03T02:42:40.441Z,8.20
2024-04-03T02:43:31.225Z,8.20
2024-04-03T02:44:22.017Z,8.17
2024-04-03T02:45:12.825Z,8.17
2024-04-03T02:46:03.626Z,8.18
2024-04-03T02:46:54.403Z,8.18
2024-04-03T02:47:45.218Z,8.18
2024-04-03T02:48:36.153Z,8.18
2024-04-03T02:49:26.956Z,8.17
2024-04-03T02:50:17.763Z,8.15
2024-04-03T02:51:08.554Z,8.15
2024-04-03T02:51:59.348Z,8.14
2024-04-03T02:52:50.133Z,8.14
2024-04-03T02:53:40.919Z,8.12
2024-04-03T02:54:31.723Z,8.12
2024-04-03T02:55:22.541Z,8.11
2024-04-03T02:56:13.326Z,8.11
2024-04-03T02:57:04.361Z,8.11
2024-04-03T02:57:55.155Z,8.11
2024-04-03T02:58:45.943Z,8.11
2024-04-03T02:59:36.734Z,8.12
2024-04-03T03:00:27.530Z,8.12
2024-04-03T03:01:18.320Z,8.12
2024-04-03T03:02:09.123Z,8.12
2024-04-03T03:02:59.918Z,8.14
2024-04-03T03:03:50.707Z,8.14
2024-04-03T03:04:41.497Z,8.12
2024-04-03T03:05:32.305Z,8.12
2024-04-03T03:06:23.096Z,8.14
2024-04-03T03:07:13.888Z,8.14
2024-04-03T03:08:04.693Z,8.14
2024-04-03T03:08:55.463Z,8.11
2024-04-03T03:09:46.253Z,8.11
2024-04-03T03:10:37.077Z,8.10
2024-04-03T03:11:27.852Z,8.08
2024-04-03T03:12:19.477Z,8.02
2024-04-03T03:13:09.562Z,8.03
2024-04-03T03:14:00.434Z,8.02
2024-04-03T03:14:51.187Z,8.00
2024-04-03T03:15:42.010Z,7.99
2024-04-03T03:16:32.799Z,8.00
2024-04-03T03:17:23.663Z,8.00
2024-04-03T03:18:14.432Z,8.00
2024-04-03T03:19:05.206Z,8.00
2024-04-03T03:19:55.997Z,8.00
2024-04-03T03:20:46.799Z,8.00
2024-04-03T03:21:37.594Z,8.00
2024-04-03T03:22:28.377Z,8.00
2024-04-03T03:23:19.159Z,7.99
2024-04-03T03:24:09.957Z,7.97
2024-04-03T03:25:00.742Z,7.97
2024-04-03T03:25:51.538Z,7.94
2024-04-03T03:26:42.319Z,7.93
2024-04-03T03:27:33.104Z,7.93
2024-04-03T03:28:23.894Z,7.94
2024-04-03T03:29:14.682Z,7.92
2024-04-03T03:30:05.472Z,7.92
2024-04-03T03:30:56.275Z,7.92
2024-04-03T03:31:47.067Z,7.92
2024-04-03T03:32:37.851Z,7.92
2024-04-03T03:33:28.818Z,7.90
2024-04-03T03:34:19.571Z,7.89
2024-04-03T03:35:10.377Z,7.87
2024-04-03T03:36:01.154Z,7.85
2024-04-03T03:36:51.942Z,7.85
2024-04-03T03:37:42.734Z,7.84
2024-04-03T03:38:33.533Z,7.82
2024-04-03T03:39:24.321Z,7.82
2024-04-03T03:40:15.138Z,7.78
2024-04-03T03:41:05.942Z,7.79
2024-04-03T03:41:56.720Z,7.77
2024-04-03T03:42:47.509Z,7.77
2024-04-03T03:43:38.562Z,7.75
2024-04-03T03:44:29.321Z,7.74
2024-04-03T03:45:20.120Z,7.71
2024-04-03T03:46:10.928Z,7.71
2024-04-03T03:47:01.715Z,7.67
2024-04-03T03:47:52.516Z,7.69
2024-04-03T03:48:43.313Z,7.67
2024-04-03T03:49:34.124Z,7.69
2024-04-03T03:50:24.901Z,7.66
2024-04-03T03:51:15.681Z,7.69
2024-04-03T03:52:06.412Z,7.66
2024-04-03T03:52:57.094Z,7.60
2024-04-03T03:53:47.795Z,7.59
2024-04-03T03:54:38.560Z,7.58
2024-04-03T03:55:29.339Z,7.53
2024-04-03T03:56:24.020Z,7.56
2024-04-03T03:57:12.111Z,7.55
2024-04-03T03:58:02.205Z,7.55
2024-04-03T03:58:52.963Z,7.55
2024-04-03T03:59:43.734Z,7.53
2024-04-03T04:00:34.503Z,7.53
2024-04-03T04:01:25.289Z,7.52
2024-04-03T04:02:16.057Z,7.50
2024-04-03T04:03:06.838Z,7.52
2024-04-03T04:03:57.602Z,7.49
2024-04-03T04:04:48.379Z,7.47
2024-04-03T04:05:39.167Z,7.49
2024-04-03T04:06:30.032Z,7.44
2024-04-03T04:07:20.916Z,7.45
2024-04-03T04:08:11.797Z,7.44
2024-04-03T04:09:02.601Z,7.45
2024-04-03T04:09:53.489Z,7.44
2024-04-03T04:10:44.267Z,7.45
2024-04-03T04:11:35.115Z,7.45
2024-04-03T04:12:25.885Z,7.44
2024-04-03T04:13:16.757Z,7.44
2024-04-03T04:14:07.319Z,7.44
2024-04-03T04:14:58.628Z,7.42
2024-04-03T04:15:49.410Z,7.42
2024-04-03T04:16:40.210Z,7.42
2024-04-03T04:17:31.030Z,7.44
2024-04-03T04:18:21.804Z,7.42
2024-04-03T04:19:12.571Z,7.41
2024-04-03T04:20:03.593Z,7.38
2024-04-03T04:20:54.642Z,7.37
2024-04-03T04:21:45.516Z,7.37
2024-04-03T04:22:36.389Z,7.35
2024-04-03T04:23:27.388Z,7.34
2024-04-03T04:24:18.225Z,7.35
2024-04-03T04:25:08.993Z,7.32
2024-04-03T04:26:00.053Z,7.34
2024-04-03T04:26:51.144Z,7.32
2024-04-03T04:27:41.845Z,7.34
2024-04-03T04:28:33.778Z,7.34
2024-04-03T04:29:23.723Z,7.32
2024-04-03T04:30:14.524Z,7.32
2024-04-03T04:31:05.254Z,7.32
2024-04-03T04:31:56.139Z,7.32
2024-04-03T04:32:47.995Z,7.32
2024-04-03T04:33:37.631Z,7.32
2024-04-03T04:34:28.515Z,7.32
2024-04-03T04:35:19.384Z,7.31
2024-04-03T04:36:10.265Z,7.27
2024-04-03T04:37:01.166Z,7.26
2024-04-03T04:37:52.015Z,7.27
2024-04-03T04:38:42.895Z,7.26
2024-04-03T04:39:33.772Z,7.24
2024-04-03T04:40:24.651Z,7.22
2024-04-03T04:41:15.530Z,7.20
2024-04-03T04:42:06.448Z,7.16
2024-04-03T04:42:57.336Z,7.16
2024-04-03T04:43:48.197Z,7.13
2024-04-03T04:44:39.071Z,7.12
2024-04-03T04:45:29.953Z,7.13
2024-04-03T04:46:20.841Z,7.12
2024-04-03T04:47:11.763Z,7.09
2024-04-03T04:48:02.619Z,7.07
2024-04-03T04:48:53.502Z,7.07
2024-04-03T04:49:44.384Z,7.09
2024-04-03T04:50:35.281Z,7.07
2024-04-03T04:51:26.209Z,7.07
2024-04-03T04:52:17.085Z,7.07
2024-04-03T04:53:07.956Z,7.08
2024-04-03T04:53:58.873Z,7.07
2024-04-03T04:54:49.759Z,7.05
2024-04-03T04:55:40.643Z,7.02
2024-04-03T04:56:31.535Z,6.99
2024-04-03T04:57:22.439Z,6.98
2024-04-03T04:58:13.321Z,6.97
2024-04-03T04:59:04.219Z,6.97
2024-04-03T04:59:55.100Z,6.95
2024-04-03T05:00:46.052Z,6.91
2024-04-03T05:01:36.903Z,6.90
2024-04-03T05:02:27.786Z,6.89
2024-04-03T05:03:18.674Z,6.87
2024-04-03T05:04:09.572Z,6.87
2024-04-03T05:05:00.447Z,6.87
2024-04-03T05:05:51.336Z,6.84
2024-04-03T05:06:42.223Z,6.83
2024-04-03T05:07:33.122Z,6.84
2024-04-03T05:08:24.012Z,6.84
2024-04-03T05:09:14.903Z,6.84
2024-04-03T05:10:05.836Z,6.86
2024-04-03T05:10:56.693Z,6.84
2024-04-03T05:11:47.575Z,6.86
2024-04-03T05:12:38.485Z,6.84
2024-04-03T05:13:29.364Z,6.83
2024-04-03T05:14:20.242Z,6.84
2024-04-03T05:15:11.129Z,6.83
2024-04-03T05:16:02.034Z,6.81
2024-04-03T05:16:52.926Z,6.81
2024-04-03T05:17:43.799Z,6.81
2024-04-03T05:18:34.684Z,6.81
2024-04-03T05:19:25.576Z,6.81
2024-04-03T05:20:16.466Z,6.80
2024-04-03T05:21:07.366Z,6.80
2024-04-03T05:21:58.253Z,6.79
2024-04-03T05:22:49.156Z,6.80
2024-04-03T05:23:40.046Z,6.79
2024-04-03T05:24:30.936Z,6.81
2024-04-03T05:25:21.829Z,6.81
2024-04-03T05:26:12.725Z,6.83
2024-04-03T05:27:03.611Z,6.81
2024-04-03T05:27:54.526Z,6.81
2024-04-03T05:28:45.401Z,6.83
2024-04-03T05:29:36.306Z,6.83
2024-04-03T05:30:29.014Z,6.84
2024-04-03T05:31:18.007Z,6.84
2024-04-03T05:32:08.924Z,6.84
2024-04-03T05:32:59.798Z,6.87
2024-04-03T05:33:50.709Z,6.86
2024-04-03T05:34:41.585Z,6.87
2024-04-03T05:35:32.478Z,6.87
2024-04-03T05:36:23.370Z,6.87
2024-04-03T05:37:15.416Z,6.89
2024-04-03T05:38:05.223Z,6.89
2024-04-03T05:38:56.111Z,6.89
2024-04-03T05:39:47.005Z,6.89
2024-04-03T05:40:37.888Z,6.87
2024-04-03T05:41:28.829Z,6.87
2024-04-03T05:42:19.686Z,6.83
2024-04-03T05:43:10.587Z,6.84
2024-04-03T05:44:01.473Z,6.86
2024-04-03T05:44:52.376Z,6.83
2024-04-03T05:45:43.284Z,6.81
2024-04-03T05:46:34.202Z,6.79
2024-04-03T05:47:25.127Z,6.77
2024-04-03T05:48:16.014Z,6.77
2024-04-03T05:49:06.925Z,6.77
2024-04-03T05:49:57.830Z,6.76
2024-04-03T05:50:48.728Z,6.76
2024-04-03T05:51:39.637Z,6.72
2024-04-03T05:52:30.545Z,6.71
2024-04-03T05:53:21.469Z,6.69
2024-04-03T05:54:12.399Z,6.71
2024-04-03T05:55:03.305Z,6.69
2024-04-03T05:55:54.219Z,6.69
2024-04-03T05:56:45.146Z,6.72
2024-04-03T05:57:36.062Z,6.72
2024-04-03T05:58:26.994Z,6.72
2024-04-03T05:59:17.895Z,6.73
2024-04-03T06:00:08.900Z,6.76
2024-04-03T06:00:59.771Z,6.79
2024-04-03T06:01:50.668Z,6.80
2024-04-03T06:02:41.690Z,6.80
2024-04-03T06:03:32.647Z,6.84
2024-04-03T06:04:23.533Z,6.84
2024-04-03T06:05:14.453Z,6.86
2024-04-03T06:06:05.367Z,6.87
2024-04-03T06:06:57.002Z,6.87
2024-04-03T06:07:47.250Z,6.87
2024-04-03T06:08:38.171Z,6.87
2024-04-03T06:09:29.090Z,6.87
2024-04-03T06:10:20.007Z,6.89
2024-04-03T06:11:10.928Z,6.89
2024-04-03T06:12:01.862Z,6.89
2024-04-03T06:12:52.771Z,6.90
2024-04-03T06:13:43.702Z,6.90
2024-04-03T06:14:34.606Z,6.95
2024-04-03T06:15:25.513Z,6.95
2024-04-03T06:16:16.437Z,6.97
2024-04-03T06:17:07.358Z,6.98
2024-04-03T06:17:58.304Z,6.99
2024-04-03T06:18:49.216Z,7.02
2024-04-03T06:19:40.131Z,6.99
2024-04-03T06:20:31.056Z,7.02
2024-04-03T06:21:21.977Z,7.05
2024-04-03T06:22:12.896Z,7.08
2024-04-03T06:23:03.834Z,7.08
2024-04-03T06:23:54.738Z,7.09
2024-04-03T06:24:45.649Z,7.13
2024-04-03T06:25:36.600Z,7.15
2024-04-03T06:26:27.504Z,7.16
2024-04-03T06:27:18.430Z,7.16
2024-04-03T06:28:09.341Z,7.15
2024-04-03T06:29:00.275Z,7.16
2024-04-03T06:29:51.177Z,7.16
2024-04-03T06:30:42.093Z,7.16
2024-04-03T06:31:33.010Z,7.12
2024-04-03T06:32:23.933Z,7.12
2024-04-03T06:33:14.948Z,7.09
2024-04-03T06:34:05.861Z,7.07
2024-04-03T06:34:56.788Z,7.07
2024-04-03T06:35:47.694Z,7.08
2024-04-03T06:36:38.679Z,7.08
2024-04-03T06:37:29.540Z,7.09
2024-04-03T06:38:20.448Z,7.15
2024-04-03T06:39:11.370Z,7.16
2024-04-03T06:40:02.306Z,7.17
2024-04-03T06:40:53.217Z,7.19
2024-04-03T06:41:44.135Z,7.19
2024-04-03T06:42:35.053Z,7.19
2024-04-03T06:43:25.979Z,7.19
2024-04-03T06:44:16.916Z,7.19
2024-04-03T06:45:07.814Z,7.19
2024-04-03T06:45:58.836Z,7.19
2024-04-03T06:46:49.755Z,7.20
2024-04-03T06:47:40.670Z,7.22
2024-04-03T06:48:31.587Z,7.23
2024-04-03T06:49:22.511Z,7.23
2024-04-03T06:50:13.427Z,7.24
2024-04-03T06:51:04.345Z,7.22
2024-04-03T06:51:55.260Z,7.23
2024-04-03T06:52:46.185Z,7.24
2024-04-03T06:53:37.152Z,7.24
2024-04-03T06:54:28.060Z,7.23
2024-04-03T06:55:18.969Z,7.23
2024-04-03T06:56:09.895Z,7.24
2024-04-03T06:57:00.808Z,7.26
2024-04-03T06:57:51.760Z,7.24
2024-04-03T06:58:42.667Z,7.27
2024-04-03T06:59:33.604Z,7.26
2024-04-03T07:00:24.561Z,7.24
2024-04-03T07:01:15.419Z,7.26
2024-04-03T07:02:06.332Z,7.26
2024-04-03T07:02:57.260Z,7.27
2024-04-03T07:03:48.200Z,7.29
2024-04-03T07:04:39.163Z,7.29
2024-04-03T07:05:30.054Z,7.29
2024-04-03T07:06:20.974Z,7.27
2024-04-03T07:07:11.894Z,7.26
2024-04-03T07:08:02.806Z,7.29
2024-04-03T07:08:53.719Z,7.27
2024-04-03T07:09:44.636Z,7.29
2024-04-03T07:10:35.660Z,7.31
2024-04-03T07:11:26.549Z,7.34
2024-04-03T07:12:17.475Z,7.31
2024-04-03T07:13:08.390Z,7.32
2024-04-03T07:13:59.306Z,7.34
2024-04-03T07:14:50.237Z,7.34
2024-04-03T07:15:41.204Z,7.37
2024-04-03T07:16:32.124Z,7.37
2024-04-03T07:17:23.085Z,7.40
2024-04-03T07:18:13.998Z,7.41
2024-04-03T07:19:04.919Z,7.45
2024-04-03T07:19:55.856Z,7.50
2024-04-03T07:20:46.785Z,7.55
2024-04-03T07:21:37.723Z,7.58
2024-04-03T07:22:28.646Z,7.60
2024-04-03T07:23:19.576Z,7.66
2024-04-03T07:24:10.497Z,7.67
2024-04-03T07:25:01.424Z,7.71
2024-04-03T07:25:52.350Z,7.71
2024-04-03T07:26:43.271Z,7.74
2024-04-03T07:27:34.192Z,7.75
2024-04-03T07:28:25.138Z,7.79
2024-04-03T07:29:16.072Z,7.82
2024-04-03T07:30:07.034Z,7.84
2024-04-03T07:30:57.917Z,7.89
2024-04-03T07:31:48.851Z,7.93
2024-04-03T07:32:39.851Z,7.99
2024-04-03T07:33:30.740Z,8.03
2024-04-03T07:34:21.674Z,8.10
2024-04-03T07:35:12.630Z,8.17
2024-04-03T07:36:03.574Z,8.22
2024-04-03T07:36:54.532Z,8.30
2024-04-03T07:37:45.481Z,8.36
2024-04-03T07:38:36.434Z,8.42
2024-04-03T07:39:27.376Z,8.48
2024-04-03T07:40:18.345Z,8.51
2024-04-03T07:41:09.280Z,8.54
2024-04-03T07:42:00.230Z,8.57
2024-04-03T07:42:51.173Z,8.58
2024-04-03T07:43:42.144Z,8.60
2024-04-03T07:44:33.060Z,8.62
2024-04-03T07:45:24.011Z,8.65
2024-04-03T07:46:14.955Z,8.66
2024-04-03T07:47:05.897Z,8.69
2024-04-03T07:47:56.846Z,8.73
2024-04-03T07:48:47.806Z,8.78
2024-04-03T07:49:38.736Z,8.81
2024-04-03T07:50:29.684Z,8.86
2024-04-03T07:51:20.642Z,8.90
2024-04-03T07:52:11.573Z,8.93
2024-04-03T07:53:02.511Z,8.97
2024-04-03T07:53:53.454Z,9.04
2024-04-03T07:54:44.396Z,9.10
2024-04-03T07:55:35.339Z,9.13
2024-04-03T07:56:26.286Z,9.20
2024-04-03T07:57:17.232Z,9.25
2024-04-03T07:58:08.171Z,9.30
2024-04-03T07:58:59.112Z,9.35
2024-04-03T07:59:50.057Z,9.42
2024-04-03T08:00:41.038Z,9.48
2024-04-03T08:01:31.947Z,9.49
2024-04-03T08:02:22.893Z,9.52
2024-04-03T08:03:21.490Z,9.53
2024-04-03T08:04:04.790Z,9.56
2024-04-03T08:04:55.723Z,9.63
2024-04-03T08:05:46.659Z,9.67
2024-04-03T08:06:37.626Z,9.75
2024-04-03T08:07:28.563Z,9.81
2024-04-03T08:08:19.534Z,9.86
2024-04-03T08:09:10.463Z,9.93
2024-04-03T08:10:01.462Z,9.97
2024-04-03T08:10:52.348Z,10.04
2024-04-03T08:11:43.306Z,10.07
2024-04-03T08:12:34.248Z,10.14
2024-04-03T08:13:25.243Z,10.19
2024-04-03T08:14:17.733Z,10.26
2024-04-03T08:15:06.923Z,10.32
2024-04-03T08:15:57.883Z,10.33
2024-04-03T08:16:48.819Z,10.33
2024-04-03T08:17:39.765Z,10.33
2024-04-03T08:18:30.699Z,10.30
2024-04-03T08:19:21.628Z,10.28
2024-04-03T08:20:12.559Z,10.25
2024-04-03T08:21:03.485Z,10.22
2024-04-03T08:21:54.425Z,10.22
2024-04-03T08:22:45.354Z,10.18
2024-04-03T08:23:36.291Z,10.15
2024-04-03T08:24:27.218Z,10.15
2024-04-03T08:25:18.180Z,10.17
2024-04-03T08:26:09.130Z,10.18
2024-04-03T08:27:00.066Z,10.19
2024-04-03T08:27:50.997Z,10.19
2024-04-03T08:28:41.964Z,10.18
2024-04-03T08:29:32.893Z,10.12
2024-04-03T08:30:23.869Z,10.12
2024-04-03T08:31:14.748Z,10.04
2024-04-03T08:32:05.663Z,10.03
2024-04-03T08:32:56.579Z,9.99
2024-04-03T08:34:38.407Z,9.91
2024-04-03T08:35:29.328Z,9.89
2024-04-03T08:36:20.257Z,9.86
2024-04-03T08:37:11.172Z,9.81
2024-04-03T08:38:03.708Z,9.79
2024-04-03T08:38:52.972Z,9.78
2024-04-03T08:39:43.884Z,9.76
2024-04-03T08:40:34.805Z,9.73
2024-04-03T08:41:25.741Z,9.75
2024-04-03T08:42:16.674Z,9.76
2024-04-03T08:43:07.577Z,9.76
2024-04-03T08:43:58.511Z,9.78
2024-04-03T08:44:49.447Z,9.76
2024-04-03T08:45:40.382Z,9.79
2024-04-03T08:46:31.340Z,9.78
2024-04-03T08:47:22.248Z,9.78
2024-04-03T08:48:13.173Z,9.76
2024-04-03T08:49:04.113Z,9.76
2024-04-03T08:49:55.049Z,9.79
2024-04-03T08:50:45.979Z,9.83
2024-04-03T08:51:36.916Z,9.86
2024-04-03T08:52:27.858Z,9.93
2024-04-03T08:53:18.802Z,9.97
2024-04-03T08:54:09.743Z,10.03
2024-04-03T08:55:00.680Z,10.06
2024-04-03T08:55:51.615Z,10.07
2024-04-03T08:56:42.559Z,10.09
2024-04-03T08:57:33.476Z,10.12
2024-04-03T08:58:24.408Z,10.14
2024-04-03T08:59:15.368Z,10.18
2024-04-03T09:00:06.255Z,10.17
2024-04-03T09:00:57.254Z,10.21
2024-04-03T09:01:48.172Z,10.19
2024-04-03T09:02:39.078Z,10.21
2024-04-03T09:03:29.980Z,10.18
2024-04-03T09:04:20.918Z,10.17
2024-04-03T09:05:11.822Z,10.14
2024-04-03T09:06:02.745Z,10.07
2024-04-03T09:06:53.662Z,10.04
2024-04-03T09:07:45.825Z,10.04
2024-04-03T09:08:35.509Z,10.01
2024-04-03T09:09:26.436Z,10.03
2024-04-03T09:10:17.358Z,10.03
2024-04-03T09:11:08.275Z,10.04
2024-04-03T09:11:59.206Z,10.06
2024-04-03T09:12:50.119Z,10.07
2024-04-03T09:13:41.028Z,10.10
2024-04-03T09:14:31.949Z,10.09
2024-04-03T09:15:22.879Z,10.09
2024-04-03T09:16:14.545Z,10.06
2024-04-03T09:17:04.859Z,10.06
2024-04-03T09:17:55.817Z,10.04
2024-04-03T09:18:46.685Z,10.06
2024-04-03T09:19:37.613Z,10.06
2024-04-03T09:20:28.535Z,10.06
2024-04-03T09:21:19.484Z,10.06
2024-04-03T09:22:10.376Z,10.04
2024-04-03T09:23:01.315Z,10.06
2024-04-03T09:23:52.223Z,10.06
2024-04-03T09:24:43.133Z,10.07
2024-04-03T09:25:34.049Z,10.09
2024-04-03T09:26:24.964Z,10.09
2024-04-03T09:27:15.888Z,10.10
2024-04-03T09:28:06.800Z,10.07
2024-04-03T09:28:57.743Z,10.07
2024-04-03T09:29:48.664Z,10.07
2024-04-03T09:30:39.579Z,10.04
2024-04-03T09:31:30.525Z,10.06
2024-04-03T09:32:21.437Z,10.07
2024-04-03T09:33:12.355Z,10.07
2024-04-03T09:34:03.299Z,10.07
2024-04-03T09:34:54.209Z,10.07
2024-04-03T09:35:45.136Z,10.09
2024-04-03T09:36:36.064Z,10.10
2024-04-03T09:37:26.984Z,10.10
2024-04-03T09:38:17.916Z,10.14
2024-04-03T09:39:08.814Z,10.14
2024-04-03T09:39:59.722Z,10.15
2024-04-03T09:40:50.640Z,10.14
2024-04-03T09:41:41.563Z,10.15
2024-04-03T09:42:32.481Z,10.15
2024-04-03T09:43:23.404Z,10.18
2024-04-03T09:44:15.174Z,10.21
2024-04-03T09:45:05.508Z,10.22
2024-04-03T09:45:56.446Z,10.26
2024-04-03T09:46:47.379Z,10.32
2024-04-03T09:47:38.365Z,10.37
2024-04-03T09:48:29.258Z,10.40
2024-04-03T09:49:20.185Z,10.43
2024-04-03T09:50:11.118Z,10.46
2024-04-03T09:51:02.073Z,10.47
2024-04-03T09:51:53.014Z,10.51
2024-04-03T09:52:43.953Z,10.51
2024-04-03T09:53:34.913Z,10.55
2024-04-03T09:54:25.934Z,10.59
2024-04-03T09:55:16.833Z,10.63
2024-04-03T09:56:07.776Z,10.65
2024-04-03T09:56:58.712Z,10.71
2024-04-03T09:57:49.649Z,10.76
2024-04-03T09:58:40.587Z,10.81
2024-04-03T09:59:31.529Z,10.88
2024-04-03T10:00:22.481Z,10.94
2024-04-03T10:01:13.422Z,10.96
2024-04-03T10:02:04.370Z,11.01
2024-04-03T10:02:55.331Z,11.06
2024-04-03T10:03:46.296Z,11.07
2024-04-03T10:04:37.210Z,11.10
2024-04-03T10:05:28.151Z,11.11
2024-04-03T10:06:19.118Z,11.11
2024-04-03T10:07:10.059Z,11.13
2024-04-03T10:08:01.010Z,11.16
2024-04-03T10:08:51.953Z,11.16
2024-04-03T10:09:42.902Z,11.20
2024-04-03T10:10:33.897Z,11.21
2024-04-03T10:11:24.845Z,11.21
2024-04-03T10:12:15.783Z,11.24
2024-04-03T10:13:06.708Z,11.25
2024-04-03T10:13:59.304Z,11.24
2024-04-03T10:14:48.795Z,11.25
2024-04-03T10:15:39.754Z,11.27
2024-04-03T10:16:30.701Z,11.29
2024-04-03T10:17:21.642Z,11.32
2024-04-03T10:18:12.625Z,11.36
2024-04-03T10:19:03.540Z,11.41
2024-04-03T10:19:54.511Z,11.44
2024-04-03T10:20:45.482Z,11.50
2024-04-03T10:21:36.473Z,11.54
2024-04-03T10:22:27.374Z,11.57
2024-04-03T10:23:18.312Z,11.62
2024-04-03T10:24:09.248Z,11.65
2024-04-03T10:25:00.216Z,11.68
2024-04-03T10:25:51.160Z,11.68
2024-04-03T10:26:46.199Z,11.68
2024-04-03T10:27:33.005Z,11.68
2024-04-03T10:28:23.914Z,11.68
2024-04-03T10:29:14.840Z,11.68
2024-04-03T10:30:05.787Z,11.67
2024-04-03T10:30:56.725Z,11.65
2024-04-03T10:31:48.568Z,11.64
2024-04-03T10:32:38.270Z,11.61
2024-04-03T10:33:29.281Z,11.57
2024-04-03T10:34:20.225Z,11.54
2024-04-03T10:35:11.134Z,11.54
2024-04-03T10:36:02.061Z,11.52
2024-04-03T10:36:52.986Z,11.49
2024-04-03T10:37:43.906Z,11.49
2024-04-03T10:38:34.824Z,11.46
2024-04-03T10:39:25.782Z,11.41
2024-04-03T10:40:16.668Z,11.38
2024-04-03T10:41:07.581Z,11.38
2024-04-03T10:41:58.513Z,11.36
2024-04-03T10:42:49.420Z,11.36
2024-04-03T10:43:40.344Z,11.38
2024-04-03T10:44:31.256Z,11.38
2024-04-03T10:45:22.276Z,11.38
2024-04-03T10:46:13.129Z,11.38
2024-04-03T10:47:04.057Z,11.41
2024-04-03T10:47:54.975Z,11.41
2024-04-03T10:48:45.899Z,11.39
2024-04-03T10:49:36.808Z,11.41
2024-04-03T10:50:27.732Z,11.39
2024-04-03T10:51:18.651Z,11.39
2024-04-03T10:52:09.564Z,11.41
2024-04-03T10:53:00.490Z,11.41
2024-04-03T10:53:51.403Z,11.43
2024-04-03T10:54:42.318Z,11.44
2024-04-03T10:55:33.249Z,11.41
2024-04-03T10:56:24.179Z,11.36
2024-04-03T10:57:15.106Z,11.35
2024-04-03T10:58:06.016Z,11.32
2024-04-03T10:58:56.929Z,11.29
2024-04-03T10:59:47.845Z,11.29
2024-04-03T11:00:38.819Z,11.27
2024-04-03T11:01:29.703Z,11.21
2024-04-03T11:02:20.622Z,11.24
2024-04-03T11:03:11.569Z,11.21
2024-04-03T11:04:02.478Z,11.21
2024-04-03T11:04:53.381Z,11.20
2024-04-03T11:05:44.301Z,11.20
2024-04-03T11:06:35.220Z,11.20
2024-04-03T11:07:26.153Z,11.17
2024-04-03T11:08:17.082Z,11.17
2024-04-03T11:09:07.999Z,11.17
2024-04-03T11:09:58.924Z,11.17
2024-04-03T11:10:49.843Z,11.16
2024-04-03T11:11:40.771Z,11.16
2024-04-03T11:12:31.706Z,11.14